Time;durP1;ratioP1;P1;durP2;ratioP2;P2;SDS_P1;SDS_P2;PMS_P1;PMS_P2;Temp;Humidity;BMP_temperature;BMP_pressure;BME280_temperature;BME280_humidity;BME280_pressure;Samples;Min_cycle;Max_cycle;Signal;HPM_P1;HPM_P2
2022/09/17 00:00:40;;;;;;;11.68;5.85;;;;;;;21.70;70.33;99093.63;5069121;28;20067;-29
2022/09/17 00:03:08;;;;;;;11.68;5.28;;;;;;;21.55;72.00;99101.09;5070127;28;20028;-30
2022/09/17 00:05:36;;;;;;;11.13;4.97;;;;;;;21.69;70.79;99089.31;5069509;28;20024;-30
2022/09/17 00:08:02;;;;;;;;;;;;;;;22.10;68.67;99104.38;5070022;28;20032;-29
2022/09/17 00:10:27;;;;;;;9.18;4.68;;;;;;;21.89;69.79;99077.84;5069308;28;19908;-30
2022/09/17 00:12:53;;;;;;;10.93;4.85;;;;;;;22.25;69.40;99099.28;5069431;28;20107;-29
2022/09/17 00:15:18;;;;;;;11.38;4.97;;;;;;;22.11;69.67;99104.06;5069165;28;20021;-30
2022/09/17 00:17:44;;;;;;;8.70;4.20;;;;;;;21.85;70.75;99099.38;5069559;28;20085;-30
2022/09/17 00:20:09;;;;;;;8.32;4.40;;;;;;;21.71;71.46;99114.22;5069416;28;20036;-29
2022/09/17 00:22:37;;;;;;;10.90;4.53;;;;;;;21.51;71.96;99097.41;5068974;28;20458;-32
2022/09/17 00:25:04;;;;;;;9.15;4.13;;;;;;;21.44;72.53;99083.50;5069128;28;20021;-32
2022/09/17 00:27:29;;;;;;;12.40;4.60;;;;;;;21.76;70.21;99079.59;5051047;28;20037;-30
2022/09/17 00:29:55;;;;;;;10.73;4.70;;;;;;;21.91;69.92;99075.63;5050990;28;20127;-29
2022/09/17 00:32:20;;;;;;;9.52;3.90;;;;;;;21.96;69.92;99094.44;5068542;28;20032;-32
2022/09/17 00:34:48;;;;;;;8.07;3.85;;;;;;;21.64;71.57;99082.94;5068383;28;20489;-31
2022/09/17 00:37:13;;;;;;;8.60;3.90;;;;;;;21.38;72.62;99090.16;5050632;28;20039;-30
2022/09/17 00:39:39;;;;;;;8.30;4.30;;;;;;;21.26;73.63;99088.84;5068796;28;20638;-32
2022/09/17 00:42:09;;;;;;;13.27;4.60;;;;;;;21.31;72.63;99074.38;5068654;28;20466;-29
2022/09/17 00:44:48;;;;;;;10.13;4.13;;;;;;;21.67;71.49;99093.13;5050380;28;20032;-31
2022/09/17 00:47:48;;;;;;;10.15;4.10;;;;;;;21.72;70.34;99075.09;5068556;28;20582;-32
2022/09/17 00:50:28;;;;;;;10.43;4.35;;;;;;;21.69;70.97;99073.03;5065281;28;20123;-31
2022/09/17 00:53:05;;;;;;;10.25;4.15;;;;;;;21.77;70.82;99077.69;5050183;28;20722;-29
2022/09/17 00:55:36;;;;;;;8.35;4.20;;;;;;;21.81;70.98;99092.22;5049509;28;20028;-32
2022/09/17 00:58:04;;;;;;;13.18;4.38;;;;;;;21.63;70.43;99059.59;5050497;28;20032;-29
2022/09/17 01:00:30;;;;;;;9.13;4.35;;;;;;;21.69;70.60;99081.19;5068249;28;20021;-29
2022/09/17 01:02:57;;;;;;;7.95;3.88;;;;;;;20.93;73.16;99052.38;5068232;28;20040;-31
2022/09/17 01:05:48;;;;;;;6.25;3.75;;;;;;;21.37;72.46;99088.56;5049942;28;20424;-28
2022/09/17 01:08:29;;;;;;;9.55;3.95;;;;;;;21.50;71.04;99086.88;5043304;28;20040;-31
2022/09/17 01:11:22;;;;;;;11.13;5.70;;;;;;;21.42;71.24;99080.28;5067918;28;20025;-30
2022/09/17 01:14:05;;;;;;;8.60;4.13;;;;;;;20.82;74.20;99096.00;5068166;28;20029;-30
2022/09/17 01:16:58;;;;;;;9.65;4.45;;;;;;;20.55;75.85;99091.47;5068080;28;20033;-29
2022/09/17 01:19:41;;;;;;;7.53;4.32;;;;;;;20.73;74.85;99080.78;5068072;28;20024;-31
2022/09/17 01:22:25;;;;;;;9.55;4.32;;;;;;;20.47;76.48;99071.38;5067805;28;20462;-31
2022/09/17 01:25:16;;;;;;;8.68;4.07;;;;;;;20.30;76.87;99084.78;5049685;28;20032;-32
2022/09/17 01:28:02;;;;;;;8.55;4.68;;;;;;;20.11;77.31;99084.97;5068094;28;20451;-31
2022/09/17 01:30:48;;;;;;;11.15;4.60;;;;;;;20.59;75.11;99083.56;5067253;28;20072;-29
2022/09/17 01:33:29;;;;;;;11.98;4.20;;;;;;;20.58;74.92;99099.03;5067893;28;20032;-31
2022/09/17 01:36:19;;;;;;;9.43;4.13;;;;;;;20.78;74.87;99086.88;5067730;28;20075;-29
2022/09/17 01:38:57;;;;;;;10.38;4.32;;;;;;;20.84;74.71;99074.81;5067530;28;20028;-29
2022/09/17 01:41:49;;;;;;;10.65;4.57;;;;;;;21.07;73.87;99069.31;5067724;28;20108;-29
2022/09/17 01:44:24;;;;;;;10.38;4.00;;;;;;;21.04;73.87;99064.53;5059321;28;20136;-30
2022/09/17 01:47:07;;;;;;;10.48;5.03;;;;;;;20.92;73.89;99072.44;5067733;28;20039;-32
2022/09/17 01:49:36;;;;;;;9.50;5.07;;;;;;;20.62;75.70;99070.22;5067575;28;20462;-29
2022/09/17 01:52:03;;;;;;;10.32;4.60;;;;;;;20.35;76.55;99044.06;5049571;28;20032;-29
2022/09/17 01:54:48;;;;;;;8.65;5.07;;;;;;;20.80;74.20;99060.28;5049047;28;20033;-39
2022/09/17 01:57:25;;;;;;;7.93;4.60;;;;;;;20.82;73.49;99071.59;5067274;28;20067;-29
2022/09/17 01:59:54;;;;;;;11.15;4.53;;;;;;;20.57;74.87;99053.25;5067604;28;20037;-29
2022/09/17 02:02:34;;;;;;;10.93;4.95;;;;;;;20.25;76.69;99055.94;5049194;28;20092;-32
2022/09/17 02:05:09;;;;;;;12.50;5.05;;;;;;;20.03;77.87;99059.41;5066926;28;20036;-29
2022/09/17 02:07:43;;;;;;;8.48;4.95;;;;;;;20.34;76.09;99058.69;5048945;28;20205;-32
2022/09/17 02:10:13;;;;;;;11.13;5.90;;;;;;;20.62;74.85;99053.16;5049254;28;20111;-29
2022/09/17 02:12:52;;;;;;;12.35;5.15;;;;;;;20.55;75.12;99042.72;5066852;28;20024;-31
2022/09/17 02:15:26;;;;;;;13.25;5.32;;;;;;;20.69;74.14;99041.88;5049130;28;20028;-29
2022/09/17 02:17:58;;;;;;;10.70;5.20;;;;;;;20.93;73.21;99046.94;5048915;28;20032;-29
2022/09/17 02:20:29;;;;;;;9.75;4.65;;;;;;;20.67;73.85;99050.31;5048885;28;20028;-30
2022/09/17 02:23:06;;;;;;;10.38;4.78;;;;;;;20.45;74.09;99048.41;5048967;28;20036;-29
2022/09/17 02:25:56;;;;;;;7.82;4.93;;;;;;;20.19;75.57;99034.72;5067132;28;20407;-29
2022/09/17 02:28:31;;;;;;;12.32;4.95;;;;;;;20.05;75.79;99032.06;5066884;28;20033;-29
2022/09/17 02:30:57;;;;;;;10.85;4.93;;;;;;;20.57;74.23;99066.81;5048885;28;20044;-32
2022/09/17 02:33:23;;;;;;;9.60;5.00;;;;;;;20.09;76.54;99064.72;5067008;28;20095;-31
2022/09/17 02:35:49;;;;;;;10.85;5.18;;;;;;;19.76;76.98;99054.09;5048638;28;20048;-29
2022/09/17 02:38:23;;;;;;;9.85;5.25;;;;;;;19.47;78.96;99056.03;5048561;28;20039;-30
2022/09/17 02:40:58;;;;;;;8.55;5.13;;;;;;;19.26;80.07;99042.09;5048361;28;20032;-31
2022/09/17 02:43:49;;;;;;;11.85;5.00;;;;;;;19.36;79.55;99029.50;5048390;28;20039;-31
2022/09/17 02:46:56;;;;;;;11.90;6.05;;;;;;;19.47;78.78;99031.69;5048701;28;20463;-32
2022/09/17 02:50:04;;;;;;;12.98;5.97;;;;;;;19.79;78.14;99037.25;5066876;28;20052;-29
2022/09/17 02:52:56;;;;;;;11.52;5.68;;;;;;;19.87;77.08;99033.81;5050625;28;20020;-32
2022/09/17 02:55:40;;;;;;;9.57;5.90;;;;;;;19.91;76.81;99007.75;5030092;28;20458;-29
2022/09/17 02:58:08;;;;;;;10.45;5.57;;;;;;;19.91;76.74;99015.88;5066779;28;20090;-29
2022/09/17 03:00:34;;;;;;;10.70;5.38;;;;;;;19.98;76.51;99010.03;5048254;28;20480;-32
2022/09/17 03:03:10;;;;;;;11.57;5.40;;;;;;;19.90;75.59;99003.47;5066719;28;20037;-29
2022/09/17 03:05:38;;;;;;;10.88;5.50;;;;;;;19.74;76.53;99013.84;5048406;28;20125;-30
2022/09/17 03:08:06;;;;;;;;;;;;;;;19.13;79.94;99004.31;5066937;28;20087;-29
2022/09/17 03:10:32;;;;;;;8.38;5.55;;;;;;;19.27;80.23;99005.88;5065187;28;19912;-29
2022/09/17 03:12:58;;;;;;;11.23;5.13;;;;;;;19.49;78.45;99012.44;5066722;28;20105;-30
2022/09/17 03:15:24;;;;;;;12.25;6.05;;;;;;;19.53;77.65;99002.63;5066497;28;20097;-29
2022/09/17 03:17:49;;;;;;;13.77;6.93;;;;;;;19.27;77.72;98989.66;5068018;28;20108;-31
2022/09/17 03:20:15;;;;;;;12.68;6.15;;;;;;;19.26;78.20;98998.84;5070211;28;20031;-29
2022/09/17 03:22:41;;;;;;;12.48;6.22;;;;;;;19.42;78.04;98993.94;5069896;28;20029;-33
2022/09/17 03:25:07;;;;;;;10.82;6.03;;;;;;;19.59;77.20;99001.41;5052231;28;20032;-32
2022/09/17 03:27:32;;;;;;;10.73;6.30;;;;;;;19.71;76.37;98983.88;5070226;28;20020;-29
2022/09/17 03:29:58;;;;;;;13.80;6.50;;;;;;;19.66;76.95;98982.06;5069999;28;20036;-30
2022/09/17 03:32:24;;;;;;;12.18;6.38;;;;;;;19.82;76.24;98987.97;5051598;28;20024;-32
2022/09/17 03:34:49;;;;;;;17.00;6.43;;;;;;;19.58;77.14;98989.00;5069657;28;20425;-29
2022/09/17 03:37:15;;;;;;;12.90;6.22;;;;;;;19.68;76.65;98977.16;5051642;28;20029;-31
2022/09/17 03:39:40;;;;;;;15.10;6.10;;;;;;;19.55;76.56;98951.72;5070124;28;20033;-31
2022/09/17 03:42:06;;;;;;;12.07;5.82;;;;;;;19.57;76.29;98971.16;5070001;28;20036;-29
2022/09/17 03:44:31;;;;;;;10.15;6.20;;;;;;;19.66;75.72;98976.66;5069866;28;20400;-29
2022/09/17 03:46:56;;;;;;;9.45;5.35;;;;;;;19.24;76.36;98955.13;5070260;28;20024;-29
2022/09/17 03:49:22;;;;;;;13.25;5.50;;;;;;;19.08;77.68;98940.31;5069773;28;20039;-30
2022/09/17 03:51:48;;;;;;;10.85;5.88;;;;;;;19.40;76.48;98949.38;5069654;28;20024;-32
2022/09/17 03:54:14;;;;;;;12.68;5.07;;;;;;;19.30;76.86;98955.03;5069511;28;20048;-30
2022/09/17 03:56:39;;;;;;;13.93;5.22;;;;;;;18.71;80.41;98950.22;5069637;28;20198;-29
2022/09/17 03:59:05;;;;;;;10.82;5.35;;;;;;;18.58;80.50;98921.34;5069341;28;20024;-29
2022/09/17 04:01:30;;;;;;;11.82;5.63;;;;;;;18.67;80.66;98943.81;5069657;28;20047;-30
2022/09/17 04:03:56;;;;;;;12.60;5.53;;;;;;;18.87;79.73;98951.56;5069486;28;20040;-33
2022/09/17 04:06:21;;;;;;;15.45;5.47;;;;;;;18.62;80.30;98941.25;5069292;28;20024;-29
2022/09/17 04:08:47;;;;;;;12.75;5.47;;;;;;;18.77;79.62;98957.13;5069298;28;20472;-31
2022/09/17 04:11:12;;;;;;;8.68;4.72;;;;;;;18.70;80.17;98959.44;5069548;28;20029;-28
2022/09/17 04:13:38;;;;;;;10.52;5.07;;;;;;;18.91;78.96;98946.34;5069652;28;20052;-34
2022/09/17 04:16:04;;;;;;;9.30;5.35;;;;;;;18.75;80.11;98958.53;5069380;28;20028;-29
2022/09/17 04:18:30;;;;;;;10.95;5.28;;;;;;;18.76;80.02;98958.25;5051034;28;20431;-32
2022/09/17 04:20:55;;;;;;;13.80;5.72;;;;;;;18.68;80.66;98945.44;5069255;28;20033;-30
2022/09/17 04:23:21;;;;;;;14.95;5.90;;;;;;;19.07;78.00;98944.94;5069223;28;20029;-31
2022/09/17 04:25:46;;;;;;;9.40;5.53;;;;;;;19.28;77.33;98952.63;5069342;28;20021;-30
2022/09/17 04:28:12;;;;;;;14.63;5.28;;;;;;;18.59;80.22;98933.72;5069046;28;20032;-29
2022/09/17 04:30:38;;;;;;;11.00;4.90;;;;;;;18.66;80.28;98953.84;5049976;28;20025;-29
2022/09/17 04:33:03;;;;;;;9.05;5.28;;;;;;;18.70;80.06;98956.75;5069031;28;20032;-30
2022/09/17 04:35:29;;;;;;;14.48;5.80;;;;;;;18.56;81.56;98964.84;5047498;28;20488;-29
2022/09/17 04:37:56;;;;;;;10.48;6.10;;;;;;;18.55;81.75;98952.44;5048911;28;20115;-29
2022/09/17 04:40:23;;;;;;;12.77;5.05;;;;;;;18.89;80.27;98962.06;5047840;28;20064;-28
2022/09/17 04:43:02;;;;;;;16.63;5.15;;;;;;;19.27;78.60;98964.53;5047355;28;20075;-27
2022/09/17 04:45:29;;;;;;;12.60;5.82;;;;;;;19.40;78.08;98963.69;5049292;28;20091;-27
2022/09/17 04:47:55;;;;;;;13.82;5.32;;;;;;;19.15;79.47;98948.84;5048817;28;20025;-27
2022/09/17 04:50:21;;;;;;;14.32;5.20;;;;;;;18.97;79.96;98928.94;5048734;28;20037;-30
2022/09/17 04:52:47;;;;;;;12.23;4.60;;;;;;;19.02;80.02;98928.84;5048375;28;20029;-28
2022/09/17 04:55:13;;;;;;;14.25;4.60;;;;;;;19.33;77.91;98924.66;5048566;28;20086;-27
2022/09/17 04:57:46;;;;;;;11.80;4.80;;;;;;;19.30;78.60;98928.00;5047274;28;20024;-27
2022/09/17 05:00:12;;;;;;;11.20;4.88;;;;;;;19.41;78.55;98937.44;5048761;28;20489;-31
2022/09/17 05:02:37;;;;;;;14.10;5.22;;;;;;;19.48;78.41;98929.75;5048091;28;20107;-30
2022/09/17 05:05:03;;;;;;;12.95;4.45;;;;;;;19.43;79.77;98930.66;5048544;28;20420;-29
2022/09/17 05:07:28;;;;;;;15.75;5.60;;;;;;;19.14;80.89;98904.00;5048470;28;20516;-27
2022/09/17 05:09:54;;;;;;;11.35;4.97;;;;;;;19.21;80.80;98917.09;5048709;28;20543;-28
2022/09/17 05:12:19;;;;;;;10.95;5.25;;;;;;;19.35;80.11;98903.53;5048359;28;20025;-28
2022/09/17 05:14:45;;;;;;;16.40;5.78;;;;;;;19.53;79.76;98916.09;5048130;28;20036;-28
2022/09/17 05:17:10;;;;;;;12.70;4.85;;;;;;;19.85;78.30;98919.69;5046902;28;20115;-27
2022/09/17 05:19:36;;;;;;;13.05;4.32;;;;;;;20.05;77.08;98916.47;5048264;28;20378;-31
2022/09/17 05:22:01;;;;;;;12.50;4.65;;;;;;;20.15;76.77;98898.41;5048462;28;20578;-27
2022/09/17 05:24:27;;;;;;;17.42;5.28;;;;;;;20.39;75.83;98904.25;5048329;28;20041;-31
2022/09/17 05:26:52;;;;;;;12.88;3.90;;;;;;;20.46;73.72;98893.75;5047935;28;20131;-27
2022/09/17 05:29:18;;;;;;;13.30;3.58;;;;;;;21.06;72.05;98933.00;5048073;28;20508;-27
2022/09/17 05:31:43;;;;;;;13.55;3.67;;;;;;;21.27;71.73;98938.59;5048076;28;20378;-30
2022/09/17 05:34:09;;;;;;;10.68;3.35;;;;;;;21.28;69.97;98923.13;5051032;28;20055;-31
2022/09/17 05:36:34;;;;;;;10.35;4.63;;;;;;;21.40;71.06;98931.44;5067611;28;20025;-30
2022/09/17 05:38:59;;;;;;;11.85;4.40;;;;;;;21.28;71.45;98951.03;5068159;28;20024;-29
2022/09/17 05:41:25;;;;;;;9.77;5.07;;;;;;;21.17;73.64;98976.88;5067382;28;20108;-29
2022/09/17 05:43:50;;;;;;;12.43;5.00;;;;;;;20.96;73.65;98978.56;5067699;28;20115;-30
2022/09/17 05:46:16;;;;;;;13.30;5.22;;;;;;;20.89;72.74;98975.50;5067738;28;20734;-31
2022/09/17 05:48:42;;;;;;;15.57;5.53;;;;;;;21.04;72.19;98972.34;5049204;28;20539;-31
2022/09/17 05:51:07;;;;;;;13.90;5.03;;;;;;;21.24;71.34;98960.13;5067775;28;20169;-31
2022/09/17 05:53:33;;;;;;;10.27;4.13;;;;;;;21.46;70.90;98965.44;5067792;28;20494;-33
2022/09/17 05:55:58;;;;;;;11.55;4.40;;;;;;;21.72;71.15;98969.28;5067068;28;20484;-30
2022/09/17 05:58:24;;;;;;;11.38;4.32;;;;;;;21.74;70.84;98943.44;5066825;28;20075;-30
2022/09/17 06:00:50;;;;;;;12.27;4.63;;;;;;;22.02;69.86;98962.88;5066897;28;20024;-35
2022/09/17 06:03:18;;;;;;;13.73;6.32;;;;;;;22.01;71.24;98966.72;5067221;28;20040;-30
2022/09/17 06:05:52;;;;;;;12.40;4.60;;;;;;;22.14;70.71;98961.41;5049401;28;20040;-31
2022/09/17 06:08:18;;;;;;;15.40;4.65;;;;;;;21.96;70.54;98950.56;5049575;28;20040;-33
2022/09/17 06:10:43;;;;;;;12.60;4.28;;;;;;;21.93;70.90;98962.09;5066891;28;20488;-29
2022/09/17 06:13:09;;;;;;;11.10;4.60;;;;;;;21.91;72.71;98993.41;5067213;28;20024;-30
2022/09/17 06:15:34;;;;;;;13.35;4.68;;;;;;;22.16;71.14;98995.28;5066478;28;20134;-30
2022/09/17 06:18:00;;;;;;;9.73;4.50;;;;;;;22.32;70.85;98992.09;5047853;28;20043;-30
2022/09/17 06:20:25;;;;;;;12.35;4.40;;;;;;;22.34;69.81;98990.63;5066253;28;20215;-32
2022/09/17 06:22:57;;;;;;;12.13;4.10;;;;;;;22.39;69.66;98993.19;5066951;28;20058;-29
2022/09/17 06:25:24;;;;;;;12.07;4.20;;;;;;;22.45;68.82;98994.63;5048985;28;20040;-32
2022/09/17 06:27:49;;;;;;;8.68;3.75;;;;;;;22.44;68.75;98998.44;5049084;28;20052;-30
2022/09/17 06:30:15;;;;;;;9.15;4.00;;;;;;;22.58;69.76;99021.91;5067000;28;20056;-31
2022/09/17 06:32:41;;;;;;;13.77;4.47;;;;;;;22.52;70.03;99018.56;5048630;28;20036;-32
2022/09/17 06:35:07;;;;;;;10.82;3.80;;;;;;;22.78;68.88;99021.19;5066680;28;20090;-30
2022/09/17 06:37:34;;;;;;;9.95;4.30;;;;;;;22.95;68.63;99014.09;5066942;28;20036;-30
2022/09/17 06:40:00;;;;;;;13.25;3.42;;;;;;;23.13;67.10;99020.25;5066574;28;20042;-30
2022/09/17 06:42:27;;;;;;;12.48;4.65;;;;;;;23.07;67.57;99011.50;5066873;28;20032;-30
2022/09/17 06:44:52;;;;;;;11.40;4.68;;;;;;;23.17;66.79;99005.69;5066589;28;20056;-30
2022/09/17 06:47:18;;;;;;;9.60;3.90;;;;;;;23.31;66.45;99016.31;5066954;28;20037;-34
2022/09/17 06:49:44;;;;;;;12.63;4.00;;;;;;;23.39;66.73;99020.09;5066641;28;20170;-34
2022/09/17 06:52:09;;;;;;;12.60;3.90;;;;;;;23.43;66.34;99012.88;5067449;28;20024;-32
2022/09/17 06:54:35;;;;;;;13.00;4.43;;;;;;;23.44;66.26;99020.72;5070649;28;20052;-32
2022/09/17 06:57:00;;;;;;;20.90;10.43;;;;;;;23.56;65.79;99022.72;5070894;28;20021;-33
2022/09/17 06:59:27;;;;;;;12.27;5.18;;;;;;;23.63;65.57;99028.44;5070682;28;20033;-30
2022/09/17 07:01:52;;;;;;;21.25;12.82;;;;;;;23.59;66.38;99011.16;5071033;28;20111;-30
2022/09/17 07:04:18;;;;;;;20.00;11.77;;;;;;;23.59;66.16;99043.81;5070943;28;20036;-30
2022/09/17 07:06:44;;;;;;;12.55;5.53;;;;;;;23.72;65.93;99041.19;5052544;28;20025;-32
2022/09/17 07:09:10;;;;;;;12.98;4.65;;;;;;;23.52;65.79;99024.53;5070710;28;20044;-34
2022/09/17 07:11:36;;;;;;;14.20;4.32;;;;;;;23.42;65.84;99041.22;5070435;28;20109;-32
2022/09/17 07:14:03;;;;;;;13.63;4.43;;;;;;;23.37;65.88;99033.25;5052356;28;20095;-30
2022/09/17 07:16:31;;;;;;;10.77;4.18;;;;;;;23.41;67.30;99050.50;5052010;28;20491;-30
2022/09/17 07:18:57;;;;;;;13.27;4.30;;;;;;;23.73;67.11;99043.56;5069859;28;20081;-31
2022/09/17 07:21:23;;;;;;;10.25;4.20;;;;;;;23.61;66.85;99046.22;5068590;28;20692;-29
2022/09/17 07:23:50;;;;;;;14.45;5.20;;;;;;;23.98;66.55;99036.34;5068759;28;20040;-30
2022/09/17 07:26:16;;;;;;;8.80;4.43;;;;;;;24.16;65.58;99034.28;5050693;28;20025;-31
2022/09/17 07:28:45;;;;;;;11.38;4.85;;;;;;;24.30;63.99;99025.03;5068663;28;20029;-35
2022/09/17 07:31:11;;;;;;;13.13;4.80;;;;;;;24.31;62.85;99042.97;5050748;28;20098;-33
2022/09/17 07:33:38;;;;;;;12.98;4.53;;;;;;;24.22;63.02;99043.84;5068746;28;20549;-31
2022/09/17 07:36:10;;;;;;;10.80;4.55;;;;;;;24.51;63.80;99033.19;5051160;28;20054;-30
2022/09/17 07:38:36;;;;;;;12.25;5.20;;;;;;;24.42;62.72;99019.63;5051880;28;20040;-31
2022/09/17 07:41:04;;;;;;;11.68;4.72;;;;;;;24.11;62.95;99010.00;5051469;28;20029;-32
2022/09/17 07:43:32;;;;;;;15.15;4.90;;;;;;;24.45;63.53;99019.72;5069756;28;20032;-34
2022/09/17 07:45:58;;;;;;;;;;;;;;;24.46;62.18;99013.16;5052357;28;20033;-30
2022/09/17 07:48:24;;;;;;;11.82;4.75;;;;;;;24.35;62.26;98998.34;5069817;28;19970;-32
2022/09/17 07:50:50;;;;;;;16.25;5.82;;;;;;;24.42;62.42;99009.50;5069525;28;20125;-31
2022/09/17 07:53:16;;;;;;;14.70;5.60;;;;;;;24.43;63.31;98993.94;5051397;28;20036;-32
2022/09/17 07:55:42;;;;;;;12.95;5.07;;;;;;;24.89;62.71;98977.53;5069524;28;20028;-30
2022/09/17 07:58:07;;;;;;;15.27;4.90;;;;;;;25.28;61.26;98992.47;5069605;28;20032;-31
2022/09/17 08:00:33;;;;;;;10.13;4.70;;;;;;;25.22;59.26;98986.44;5069885;28;20035;-31
2022/09/17 08:02:58;;;;;;;11.25;4.97;;;;;;;25.52;59.44;98988.06;5069076;28;20123;-30
2022/09/17 08:05:25;;;;;;;12.40;5.15;;;;;;;25.57;58.98;98988.63;5069445;28;20029;-32
2022/09/17 08:07:51;;;;;;;14.35;5.30;;;;;;;25.60;58.95;99007.06;5069490;28;20063;-30
2022/09/17 08:10:20;;;;;;;14.50;6.07;;;;;;;25.66;57.43;98992.03;5069177;28;20439;-30
2022/09/17 08:12:52;;;;;;;11.82;5.57;;;;;;;25.90;56.64;98987.66;5051023;28;20036;-34
2022/09/17 08:15:18;;;;;;;12.82;5.30;;;;;;;25.97;56.11;98976.13;5069386;28;20029;-32
2022/09/17 08:17:45;;;;;;;10.88;5.10;;;;;;;26.03;54.86;98996.56;5069278;28;20033;-32
2022/09/17 08:20:12;;;;;;;12.57;5.90;;;;;;;25.74;56.61;99003.16;5051119;28;20090;-30
2022/09/17 08:22:37;;;;;;;11.93;5.93;;;;;;;25.66;58.53;99004.88;5068886;28;20032;-30
2022/09/17 08:25:04;;;;;;;10.45;4.80;;;;;;;25.74;55.69;98994.97;5067277;28;20029;-34
2022/09/17 08:27:30;;;;;;;10.68;5.75;;;;;;;26.04;55.17;98992.72;5049240;28;20089;-30
2022/09/17 08:29:56;;;;;;;10.77;5.20;;;;;;;26.39;53.43;98990.13;5049284;28;20033;-33
2022/09/17 08:32:22;;;;;;;14.00;4.53;;;;;;;26.40;52.56;98982.75;5049319;28;20039;-30
2022/09/17 08:34:48;;;;;;;14.80;5.30;;;;;;;26.06;54.76;98985.75;5048958;28;20873;-30
2022/09/17 08:37:13;;;;;;;9.80;4.45;;;;;;;25.91;56.55;98980.25;5067330;28;20028;-31
2022/09/17 08:39:39;;;;;;;13.05;5.45;;;;;;;25.83;55.67;98992.91;5067907;28;20032;-30
2022/09/17 08:42:47;;;;;;;12.45;5.25;;;;;;;26.20;54.94;98990.81;5067551;28;20082;-32
2022/09/17 08:45:15;;;;;;;10.00;4.40;;;;;;;26.47;55.69;98980.19;5056205;28;20483;-30
2022/09/17 08:47:44;;;;;;;;;;;;;;;26.99;54.83;98987.34;5067607;28;20131;-32
2022/09/17 08:50:23;;;;;;;12.85;4.97;;;;;;;27.34;53.96;98975.66;5065841;28;19912;-35
2022/09/17 08:53:23;;;;;;;11.35;4.43;;;;;;;27.88;51.54;98976.78;5049742;28;20115;-31
2022/09/17 08:56:11;;;;;;;12.30;4.30;;;;;;;27.76;51.55;98953.03;5067720;28;20032;-30
2022/09/17 08:58:58;;;;;;;10.18;3.80;;;;;;;27.76;50.94;98963.19;5067722;28;20098;-31
2022/09/17 09:01:44;;;;;;;;;;;;;;;27.80;48.51;98970.34;5068154;28;20028;-29
2022/09/17 09:04:57;;;;;;;10.45;3.60;;;;;;;27.91;51.84;98981.56;5067654;28;19917;-32
2022/09/17 09:07:27;;;;;;;9.15;4.03;;;;;;;27.68;51.23;98972.44;4985460;28;20034;-30
2022/09/17 09:10:03;;;;;;;11.48;4.20;;;;;;;28.00;52.34;98973.09;4969188;28;20034;-31
2022/09/17 09:12:33;;;;;;;10.05;3.80;;;;;;;28.57;51.87;98956.91;5018535;28;20048;-32
2022/09/17 09:15:32;;;;;;;8.95;4.25;;;;;;;28.77;50.75;98961.16;5048204;28;20033;-34
2022/09/17 09:18:03;;;;;;;11.45;3.80;;;;;;;28.42;48.73;98945.66;5044668;28;20512;-36
2022/09/17 09:20:56;;;;;;;10.63;3.83;;;;;;;28.93;49.20;98962.94;5066770;28;20032;-33
2022/09/17 09:23:49;;;;;;;10.30;3.67;;;;;;;29.39;47.28;98957.34;5048487;28;20040;-31
2022/09/17 09:26:20;;;;;;;9.07;3.67;;;;;;;29.46;45.33;98946.44;5066997;28;20025;-30
2022/09/17 09:29:00;;;;;;;10.30;3.67;;;;;;;29.58;45.38;98953.66;5066038;28;20032;-36
2022/09/17 09:32:13;;;;;;;7.85;3.20;;;;;;;29.82;45.44;98931.22;5064921;28;20028;-30
2022/09/17 09:34:39;;;;;;;11.18;3.40;;;;;;;29.53;44.90;98913.59;5034687;28;20048;-34
2022/09/17 09:37:16;;;;;;;11.95;3.47;;;;;;;29.32;45.68;98914.13;5047386;28;20721;-30
2022/09/17 09:39:43;;;;;;;7.97;3.50;;;;;;;29.51;45.51;98923.38;5062550;28;20042;-29
2022/09/17 09:42:22;;;;;;;9.25;3.92;;;;;;;29.87;44.65;98934.78;5038830;28;20044;-29
2022/09/17 09:44:48;;;;;;;10.77;3.45;;;;;;;29.70;45.71;98897.69;5048113;28;20040;-28
2022/09/17 09:47:28;;;;;;;11.38;3.58;;;;;;;30.03;44.35;98908.66;5048269;28;20038;-28
2022/09/17 09:49:54;;;;;;;12.45;3.45;;;;;;;30.02;44.25;98898.06;5066791;28;20028;-30
2022/09/17 09:53:01;;;;;;;8.68;3.35;;;;;;;30.09;44.68;98894.56;5065523;28;20059;-30
2022/09/17 09:55:26;;;;;;;;;;;;;;;30.58;43.45;98887.91;5037328;28;20032;-32
2022/09/17 09:57:57;;;;;;;9.93;4.43;;;;;;;30.59;41.69;98882.03;5065771;28;19912;-29
2022/09/17 10:00:37;;;;;;;9.50;3.22;;;;;;;31.16;41.74;98900.91;5047731;28;20740;-31
2022/09/17 10:03:12;;;;;;;22.50;3.35;;;;;;;31.43;39.53;98875.81;5047719;28;20090;-33
2022/09/17 10:05:38;;;;;;;9.40;3.28;;;;;;;31.52;39.52;98881.00;5066004;28;20053;-29
2022/09/17 10:08:14;;;;;;;14.23;3.95;;;;;;;31.59;39.35;98879.06;5065750;28;20037;-32
2022/09/17 10:11:02;;;;;;;12.82;4.25;;;;;;;31.87;40.20;98871.22;5047423;28;20484;-32
2022/09/17 10:13:37;;;;;;;14.40;3.80;;;;;;;31.93;40.09;98886.19;5047565;28;20514;-36
2022/09/17 10:16:15;;;;;;;7.53;3.40;;;;;;;31.72;41.39;98881.44;5065695;28;20105;-31
2022/09/17 10:18:41;;;;;;;13.60;3.70;;;;;;;31.34;40.53;98864.38;5065572;28;20035;-28
2022/09/17 10:21:38;;;;;;;16.13;3.90;;;;;;;31.67;40.06;98852.31;5065573;28;20037;-28
2022/09/17 10:24:20;;;;;;;10.13;3.90;;;;;;;31.90;40.14;98859.44;5047273;28;20500;-28
2022/09/17 10:26:46;;;;;;;10.30;4.05;;;;;;;31.95;40.42;98837.75;5047141;28;20734;-32
2022/09/17 10:29:15;;;;;;;14.60;3.95;;;;;;;32.35;38.68;98830.28;5065692;28;20017;-28
2022/09/17 10:31:57;;;;;;;12.88;4.10;;;;;;;32.37;37.69;98832.66;5047023;28;20039;-28
2022/09/17 10:34:28;;;;;;;10.05;3.40;;;;;;;32.32;38.23;98833.84;5065303;28;20116;-34
2022/09/17 10:36:58;;;;;;;10.15;3.33;;;;;;;32.28;39.01;98822.00;5047215;28;20039;-31
2022/09/17 10:39:26;;;;;;;12.95;3.47;;;;;;;32.30;37.66;98821.63;5047523;28;20028;-31
2022/09/17 10:42:14;;;;;;;11.88;4.70;;;;;;;32.25;38.19;98817.31;5065557;28;20052;-29
2022/09/17 10:45:00;;;;;;;12.20;3.53;;;;;;;32.07;36.35;98827.56;5065004;28;20028;-33
2022/09/17 10:47:34;;;;;;;7.80;3.15;;;;;;;32.00;38.21;98820.84;5047301;28;20486;-31
2022/09/17 10:50:16;;;;;;;10.90;3.25;;;;;;;32.26;38.15;98820.84;5047407;28;20043;-31
2022/09/17 10:52:55;;;;;;;9.15;2.90;;;;;;;32.21;36.86;98824.78;5046851;28;20119;-27
2022/09/17 10:55:43;;;;;;;14.27;3.60;;;;;;;32.31;35.69;98828.72;5065414;28;20502;-29
2022/09/17 10:58:36;;;;;;;10.63;3.35;;;;;;;32.39;35.85;98836.59;5047200;28;20059;-32
2022/09/17 11:01:01;;;;;;;10.40;4.18;;;;;;;32.50;37.42;98841.31;5065106;28;20032;-28
2022/09/17 11:04:04;;;;;;;14.75;3.42;;;;;;;31.94;36.63;98830.69;5065394;28;20043;-29
2022/09/17 11:07:12;;;;;;;12.63;3.72;;;;;;;31.35;38.67;98824.63;5064984;28;20419;-32
2022/09/17 11:10:16;;;;;;;10.95;3.42;;;;;;;31.14;39.74;98826.16;5064944;28;20047;-28
2022/09/17 11:12:50;;;;;;;11.20;3.30;;;;;;;30.55;40.09;98844.69;5063377;28;20515;-29
2022/09/17 11:15:50;;;;;;;14.85;3.42;;;;;;;30.08;42.11;98866.28;5063392;28;20075;-33
2022/09/17 11:18:18;;;;;;;8.60;2.95;;;;;;;29.56;43.92;98868.88;5065178;28;20121;-32
2022/09/17 11:20:53;;;;;;;18.50;4.53;;;;;;;29.45;47.60;98885.25;5063468;28;20403;-29
2022/09/17 11:23:36;;;;;;;15.18;4.82;;;;;;;29.14;49.14;98902.91;5046461;28;20040;-29
2022/09/17 11:26:33;;;;;;;9.07;4.45;;;;;;;29.16;48.83;98906.06;5063422;28;20032;-33
2022/09/17 11:28:58;;;;;;;12.50;6.07;;;;;;;29.28;47.88;98906.97;5065028;28;20060;-33
2022/09/17 11:31:38;;;;;;;10.93;6.57;;;;;;;29.48;46.69;98889.19;5064962;28;20445;-28
2022/09/17 11:34:21;;;;;;;11.32;2.83;;;;;;;29.19;46.61;98916.28;5064920;28;20024;-28
2022/09/17 11:36:56;;;;;;;12.68;3.63;;;;;;;28.90;46.82;98945.28;5046669;28;20548;-30
2022/09/17 11:39:39;;;;;;;7.85;2.70;;;;;;;28.22;49.05;98985.25;5049052;28;20082;-27
2022/09/17 11:42:11;;;;;;;7.68;3.33;;;;;;;27.83;49.42;99007.19;5068585;28;20119;-31
2022/09/17 11:44:50;;;;;;;11.63;3.67;;;;;;;27.40;50.34;99041.84;5050094;28;20029;-31
2022/09/17 11:47:41;;;;;;;11.93;3.55;;;;;;;27.04;52.16;99103.94;5067269;28;20126;-34
2022/09/17 11:50:31;;;;;;;24.77;5.32;;;;;;;25.55;62.46;99050.19;5050480;28;20024;-28
2022/09/17 11:53:15;;;;;;;14.63;3.65;;;;;;;24.53;69.36;99042.59;5050349;28;20168;-28